createdAt,value
2022-10-25T00:00:24.241Z,16.30
2022-10-25T00:02:52.011Z,16.00
2022-10-25T00:05:18.528Z,16.54
2022-10-25T00:07:45.239Z,16.21
2022-10-25T00:10:12.273Z,16.49
2022-10-25T00:12:43.374Z,16.52
2022-10-25T00:15:12.115Z,16.81
2022-10-25T00:17:38.634Z,16.46
2022-10-25T00:20:07.285Z,16.42
2022-10-25T00:22:33.701Z,16.35
2022-10-25T00:25:00.119Z,16.46
2022-10-25T00:27:26.840Z,16.46
2022-10-25T00:29:53.577Z,16.33
2022-10-25T00:32:20.337Z,16.59
2022-10-25T00:34:46.995Z,16.23
2022-10-25T00:37:15.054Z,16.61
2022-10-25T00:39:41.485Z,16.45
2022-10-25T00:42:07.863Z,16.31
2022-10-25T00:44:50.721Z,16.65
2022-10-25T00:47:37.340Z,16.78
2022-10-25T00:50:13.473Z,16.89
2022-10-25T00:52:44.294Z,16.71
2022-10-25T00:55:12.350Z,16.70
2022-10-25T00:57:43.664Z,16.63
2022-10-25T01:00:11.042Z,16.82
2022-10-25T01:02:37.571Z,17.07
2022-10-25T01:05:04.934Z,17.09
2022-10-25T01:07:31.354Z,16.86
2022-10-25T01:09:59.181Z,17.15
2022-10-25T01:12:25.761Z,16.92
2022-10-25T01:14:54.371Z,17.09
2022-10-25T01:17:29.160Z,16.72
2022-10-25T01:20:26.399Z,16.96
2022-10-25T01:23:00.753Z,16.98
2022-10-25T01:25:54.205Z,17.07
2022-10-25T01:28:32.237Z,17.37
2022-10-25T01:31:27.227Z,17.10
2022-10-25T01:33:57.888Z,17.19
2022-10-25T01:36:33.149Z,17.19
2022-10-25T01:39:08.870Z,17.44
2022-10-25T01:41:44.503Z,17.23
2022-10-25T01:44:24.501Z,16.94
2022-10-25T01:46:57.316Z,17.33
2022-10-25T01:49:28.515Z,17.17
2022-10-25T01:51:54.913Z,16.76
2022-10-25T01:54:23.207Z,16.62
2022-10-25T01:57:03.517Z,16.74
2022-10-25T01:59:44.696Z,16.66
2022-10-25T02:02:22.270Z,16.93
2022-10-25T02:04:57.839Z,17.04
2022-10-25T02:07:27.886Z,16.39
2022-10-25T02:10:02.758Z,16.73
2022-10-25T02:12:33.198Z,16.91
2022-10-25T02:15:08.710Z,16.49
2022-10-25T02:17:42.091Z,16.64
2022-10-25T02:20:09.293Z,16.66
2022-10-25T02:22:38.931Z,16.80
2022-10-25T02:25:08.176Z,16.76
2022-10-25T02:27:36.683Z,16.54
2022-10-25T02:30:04.036Z,16.52
2022-10-25T02:32:31.620Z,16.65
2022-10-25T02:34:59.496Z,16.05
2022-10-25T02:37:25.952Z,15.98
2022-10-25T02:39:52.395Z,16.44
2022-10-25T02:42:18.912Z,16.24
2022-10-25T02:44:45.365Z,15.83
2022-10-25T02:47:11.770Z,16.38
2022-10-25T02:49:38.391Z,15.62
2022-10-25T02:52:06.132Z,16.23
2022-10-25T02:54:32.563Z,16.23
2022-10-25T02:56:58.968Z,16.40
2022-10-25T02:59:25.364Z,16.44
2022-10-25T03:01:51.992Z,16.50
2022-10-25T03:04:18.468Z,16.54
2022-10-25T03:06:44.873Z,16.49
2022-10-25T03:09:12.727Z,16.44
2022-10-25T03:11:39.177Z,16.43
2022-10-25T03:14:05.593Z,16.59
2022-10-25T03:16:32.351Z,16.47
2022-10-25T03:18:59.422Z,16.92
2022-10-25T03:21:26.254Z,16.63
2022-10-25T03:23:52.750Z,16.61
2022-10-25T03:26:20.740Z,16.70
2022-10-25T03:28:47.232Z,16.57
2022-10-25T03:31:15.681Z,16.38
2022-10-25T03:33:42.753Z,16.34
2022-10-25T03:36:09.635Z,16.60
2022-10-25T03:38:36.131Z,16.77
2022-10-25T03:41:02.576Z,16.53
2022-10-25T03:43:30.327Z,16.74
2022-10-25T03:45:56.744Z,16.78
2022-10-25T03:48:23.144Z,16.54
2022-10-25T03:50:49.562Z,16.22
2022-10-25T03:53:16.075Z,16.70
2022-10-25T03:55:42.502Z,16.64
2022-10-25T03:58:09.055Z,17.10
2022-10-25T04:00:36.897Z,16.85
2022-10-25T04:03:03.685Z,16.32
2022-10-25T04:05:30.323Z,16.58
2022-10-25T04:07:56.948Z,16.60
2022-10-25T04:10:25.202Z,16.50
2022-10-25T04:12:52.774Z,16.55
2022-10-25T04:15:20.097Z,16.26
2022-10-25T04:17:50.111Z,16.71
2022-10-25T04:20:16.769Z,16.78
2022-10-25T04:22:43.198Z,17.18
2022-10-25T04:25:09.687Z,16.64
2022-10-25T04:27:36.072Z,16.75
2022-10-25T04:30:02.600Z,16.90
2022-10-25T04:32:29.551Z,17.32
2022-10-25T04:34:57.315Z,17.11
2022-10-25T04:37:23.774Z,16.93
2022-10-25T04:39:50.193Z,16.77
2022-10-25T04:42:16.611Z,16.73
2022-10-25T04:44:43.036Z,16.72
2022-10-25T04:47:09.431Z,17.02
2022-10-25T04:49:35.846Z,17.14
2022-10-25T04:52:03.738Z,17.01
2022-10-25T04:54:30.175Z,16.92
2022-10-25T04:56:56.581Z,17.29
2022-10-25T04:59:23.065Z,16.97
2022-10-25T05:01:49.509Z,17.22
2022-10-25T05:04:15.985Z,17.17
2022-10-25T05:06:42.436Z,17.18
2022-10-25T05:09:10.248Z,17.11
2022-10-25T05:14:08.103Z,17.20
2022-10-25T05:16:34.507Z,16.99
2022-10-25T05:19:01.325Z,17.29
2022-10-25T05:21:29.071Z,17.13
2022-10-25T05:24:00.545Z,16.79
2022-10-25T05:26:30.877Z,16.98
2022-10-25T05:28:58.000Z,16.93
2022-10-25T05:31:25.941Z,17.14
2022-10-25T05:33:54.002Z,16.76
2022-10-25T05:36:20.843Z,16.78
2022-10-25T05:38:47.594Z,16.90
2022-10-25T05:41:16.011Z,17.08
2022-10-25T05:43:45.338Z,16.89
2022-10-25T05:46:14.096Z,17.34
2022-10-25T05:48:45.788Z,17.71
2022-10-25T05:54:05.375Z,17.26
2022-10-25T05:56:32.660Z,17.30
2022-10-25T05:59:04.249Z,17.36
2022-10-25T06:01:30.739Z,17.10
2022-10-25T06:03:57.307Z,17.07
2022-10-25T06:06:24.176Z,17.12
2022-10-25T06:08:56.152Z,17.00
2022-10-25T06:11:23.106Z,17.12
2022-10-25T06:13:49.577Z,16.91
2022-10-25T06:16:20.214Z,16.83
2022-10-25T06:18:46.740Z,16.80
2022-10-25T06:21:15.069Z,17.11
2022-10-25T06:23:41.772Z,17.23
2022-10-25T06:26:09.690Z,17.61
2022-10-25T06:28:36.397Z,17.39
2022-10-25T06:31:04.056Z,17.33
2022-10-25T06:33:32.644Z,17.57
2022-10-25T06:36:01.216Z,16.99
2022-10-25T06:38:28.644Z,17.26
2022-10-25T06:40:58.578Z,16.98
2022-10-25T06:43:25.092Z,16.83
2022-10-25T06:45:51.505Z,16.81
2022-10-25T06:48:17.974Z,16.79
2022-10-25T06:50:48.503Z,16.87
2022-10-25T06:53:17.874Z,16.69
2022-10-25T06:55:48.462Z,16.80
2022-10-25T06:58:14.875Z,16.53
2022-10-25T07:00:43.686Z,17.08
2022-10-25T07:03:12.456Z,16.80
2022-10-25T07:05:38.849Z,17.06
2022-10-25T07:08:06.780Z,17.29
2022-10-25T07:10:33.174Z,16.98
2022-10-25T07:12:59.578Z,16.65
2022-10-25T07:15:25.991Z,16.84
2022-10-25T07:17:54.745Z,17.35
2022-10-25T07:20:21.160Z,16.60
2022-10-25T07:22:47.804Z,17.09
2022-10-25T07:25:15.610Z,17.14
2022-10-25T07:27:42.097Z,17.16
2022-10-25T07:30:09.870Z,16.80
2022-10-25T07:32:41.437Z,16.90
2022-10-25T07:35:09.108Z,17.19
2022-10-25T07:37:35.546Z,16.91
2022-10-25T07:40:01.952Z,17.19
2022-10-25T07:42:29.657Z,16.72
2022-10-25T07:44:56.150Z,16.46
2022-10-25T07:47:22.585Z,17.03
2022-10-25T07:49:49.020Z,16.74
2022-10-25T07:52:15.433Z,16.26
2022-10-25T07:54:44.784Z,16.79
2022-10-25T07:57:11.183Z,17.52
2022-10-25T07:59:38.954Z,17.35
2022-10-25T08:02:05.423Z,17.33
2022-10-25T08:07:03.275Z,17.12
2022-10-25T08:09:44.214Z,17.48
2022-10-25T08:12:10.655Z,16.90
2022-10-25T08:14:40.710Z,17.39
2022-10-25T08:17:10.322Z,17.09
2022-10-25T08:19:36.748Z,17.26
2022-10-25T08:22:03.177Z,17.32
2022-10-25T08:24:29.684Z,17.71
2022-10-25T08:26:56.132Z,17.49
2022-10-25T08:29:22.856Z,18.17
2022-10-25T08:31:49.528Z,17.56
2022-10-25T08:34:17.300Z,17.58
2022-10-25T08:36:43.733Z,17.25
2022-10-25T08:39:10.176Z,16.97
2022-10-25T08:41:46.748Z,17.13
2022-10-25T08:44:18.693Z,17.81
2022-10-25T08:46:55.628Z,17.98
2022-10-25T08:49:29.458Z,17.90
2022-10-25T08:51:58.352Z,18.26
2022-10-25T08:54:28.169Z,18.25
2022-10-25T08:57:15.369Z,18.00
2022-10-25T08:59:45.012Z,18.34
2022-10-25T09:02:19.096Z,17.90
2022-10-25T09:04:47.181Z,17.76
2022-10-25T09:07:30.344Z,17.63
2022-10-25T09:10:06.746Z,17.74
2022-10-25T09:12:39.311Z,17.60
2022-10-25T09:15:15.873Z,17.66
2022-10-25T09:17:48.792Z,17.31
2022-10-25T09:20:20.565Z,17.85
2022-10-25T09:22:48.523Z,18.32
2022-10-25T09:25:21.442Z,18.52
2022-10-25T09:27:57.949Z,18.69
2022-10-25T09:30:24.588Z,18.81
2022-10-25T09:32:54.524Z,18.43
2022-10-25T09:35:27.391Z,18.76
2022-10-25T09:37:57.936Z,18.72
2022-10-25T09:40:29.730Z,18.60
2022-10-25T09:43:00.991Z,18.32
2022-10-25T09:45:37.336Z,17.77
2022-10-25T09:48:12.015Z,18.27
2022-10-25T09:50:46.476Z,17.98
2022-10-25T09:53:16.611Z,17.86
2022-10-25T09:55:51.540Z,18.36
2022-10-25T09:58:20.460Z,18.34
2022-10-25T10:00:47.421Z,18.22
2022-10-25T10:03:14.796Z,18.43
2022-10-25T10:05:48.623Z,18.28
2022-10-25T10:08:15.197Z,18.46
2022-10-25T10:10:42.246Z,18.52
2022-10-25T10:13:16.705Z,18.63
2022-10-25T10:15:52.492Z,18.32
2022-10-25T10:18:20.368Z,18.62
2022-10-25T10:21:00.482Z,18.66
2022-10-25T10:23:28.861Z,18.21
2022-10-25T10:25:55.892Z,18.27
2022-10-25T10:28:22.639Z,17.94
2022-10-25T10:30:53.585Z,18.37
2022-10-25T10:33:20.555Z,18.17
2022-10-25T10:35:47.015Z,18.12
2022-10-25T10:38:21.573Z,18.51
2022-10-25T10:40:50.780Z,17.98
2022-10-25T10:43:29.011Z,18.21
2022-10-25T10:46:01.768Z,18.50
2022-10-25T10:48:33.232Z,18.62
2022-10-25T10:50:59.988Z,18.73
2022-10-25T10:53:29.316Z,18.43
2022-10-25T10:55:58.039Z,18.48
2022-10-25T10:58:26.112Z,18.79
2022-10-25T11:00:55.574Z,19.05
2022-10-25T11:03:59.112Z,18.85
2022-10-25T11:06:29.028Z,18.85
2022-10-25T11:09:13.100Z,18.54
2022-10-25T11:11:39.633Z,19.06
2022-10-25T11:14:11.035Z,19.23
2022-10-25T11:16:50.578Z,19.32
2022-10-25T11:19:26.831Z,19.16
2022-10-25T11:22:15.111Z,19.29
2022-10-25T11:24:55.111Z,19.48
2022-10-25T11:27:35.040Z,19.36
2022-10-25T11:30:12.477Z,19.35
2022-10-25T11:32:58.520Z,18.97
2022-10-25T11:35:40.256Z,19.17
2022-10-25T11:38:13.535Z,19.22
2022-10-25T11:40:46.086Z,19.06
2022-10-25T11:43:34.057Z,19.28
2022-10-25T11:46:06.501Z,19.24
2022-10-25T11:48:50.829Z,19.15
2022-10-25T11:51:24.887Z,19.28
2022-10-25T11:54:06.633Z,19.06
2022-10-25T11:56:42.138Z,19.15
2022-10-25T11:59:15.646Z,19.33
2022-10-25T12:01:52.735Z,19.46
2022-10-25T12:04:37.966Z,19.73
2022-10-25T12:07:10.463Z,19.72
2022-10-25T12:09:48.673Z,19.27
2022-10-25T12:12:19.530Z,19.42
2022-10-25T12:14:49.461Z,19.41
2022-10-25T12:17:23.694Z,19.25
2022-10-25T12:19:54.198Z,19.63
2022-10-25T12:22:24.119Z,19.48
2022-10-25T12:24:56.526Z,19.76
2022-10-25T12:27:26.853Z,19.75
2022-10-25T12:29:57.931Z,19.09
2022-10-25T12:32:31.825Z,19.25
2022-10-25T12:35:01.273Z,19.30
2022-10-25T12:37:36.849Z,19.32
2022-10-25T12:40:04.681Z,19.27
2022-10-25T12:42:37.519Z,19.17
2022-10-25T12:45:29.605Z,19.13
2022-10-25T12:48:06.081Z,19.20
2022-10-25T12:50:51.574Z,19.08
2022-10-25T12:53:55.199Z,19.12
2022-10-25T12:56:36.124Z,19.14
2022-10-25T12:59:09.678Z,19.19
2022-10-25T13:01:54.128Z,19.45
2022-10-25T13:04:39.724Z,19.02
2022-10-25T13:07:07.557Z,19.34
2022-10-25T13:09:35.751Z,19.27
2022-10-25T13:12:05.292Z,19.42
2022-10-25T13:14:35.741Z,19.62
2022-10-25T13:17:35.522Z,19.27
2022-10-25T13:20:39.096Z,19.70
2022-10-25T13:23:58.385Z,19.90
2022-10-25T13:26:27.803Z,20.19
2022-10-25T13:28:55.751Z,20.29
2022-10-25T13:32:08.810Z,19.34
2022-10-25T13:34:38.178Z,19.94
2022-10-25T13:37:06.632Z,18.92
2022-10-25T13:39:38.019Z,19.12
2022-10-25T13:42:22.228Z,19.06
2022-10-25T13:44:54.871Z,19.01
2022-10-25T13:47:39.837Z,19.31
2022-10-25T13:52:58.926Z,18.75
2022-10-25T13:55:32.871Z,18.50
2022-10-25T13:57:59.559Z,18.05
2022-10-25T14:00:36.085Z,18.69
2022-10-25T14:03:26.907Z,18.99
2022-10-25T14:06:09.755Z,19.06
2022-10-25T14:08:48.173Z,19.04
2022-10-25T14:11:19.435Z,19.06
2022-10-25T14:13:51.979Z,18.78
2022-10-25T14:16:25.116Z,18.97
2022-10-25T14:18:54.960Z,18.44
2022-10-25T14:21:24.547Z,18.82
2022-10-25T14:23:51.624Z,19.17
2022-10-25T14:26:18.322Z,18.99
2022-10-25T14:28:44.708Z,18.63
2022-10-25T14:31:13.877Z,18.59
2022-10-25T14:33:44.654Z,18.47
2022-10-25T14:36:25.829Z,18.42
2022-10-25T14:38:54.291Z,18.64
2022-10-25T14:41:23.109Z,18.68
2022-10-25T14:43:49.596Z,18.46
2022-10-25T14:46:18.147Z,18.51
2022-10-25T14:48:46.060Z,18.46
2022-10-25T14:51:16.697Z,18.49
2022-10-25T14:53:51.514Z,18.61
2022-10-25T14:56:23.843Z,18.05
2022-10-25T14:58:50.589Z,18.19
2022-10-25T15:01:20.078Z,17.97
2022-10-25T15:03:48.717Z,18.38
2022-10-25T15:06:18.583Z,18.26
2022-10-25T15:08:50.702Z,17.88
2022-10-25T15:11:19.464Z,18.33
2022-10-25T15:13:47.680Z,18.15
2022-10-25T15:16:30.019Z,17.95
2022-10-25T15:19:18.260Z,18.09
2022-10-25T15:21:48.454Z,17.72
2022-10-25T15:24:18.380Z,18.13
2022-10-25T15:26:55.364Z,17.60
2022-10-25T15:29:44.013Z,17.26
2022-10-25T15:32:13.735Z,17.47
2022-10-25T15:34:41.532Z,17.74
2022-10-25T15:37:11.491Z,17.50
2022-10-25T15:39:38.200Z,17.70
2022-10-25T15:42:04.722Z,17.84
2022-10-25T15:44:31.355Z,18.01
2022-10-25T15:46:57.887Z,17.44
2022-10-25T15:49:24.306Z,17.51
2022-10-25T15:51:50.968Z,17.43
2022-10-25T15:54:20.622Z,17.23
2022-10-25T15:56:47.956Z,17.44
2022-10-25T16:01:50.273Z,17.26
2022-10-25T16:04:18.348Z,17.09
2022-10-25T16:06:45.988Z,17.35
2022-10-25T16:09:12.685Z,17.52
2022-10-25T16:11:46.334Z,17.23
2022-10-25T16:14:20.481Z,17.15
2022-10-25T16:16:46.975Z,16.93
2022-10-25T16:19:14.964Z,16.94
2022-10-25T16:21:41.729Z,17.30
2022-10-25T16:24:08.300Z,17.10
2022-10-25T16:26:41.404Z,17.32
2022-10-25T16:29:14.140Z,17.20
2022-10-25T16:31:40.532Z,17.11
2022-10-25T16:34:06.960Z,16.88
2022-10-25T16:36:34.618Z,16.70
2022-10-25T16:39:01.020Z,16.49
2022-10-25T16:41:29.382Z,16.77
2022-10-25T16:43:57.972Z,16.39
2022-10-25T16:46:24.415Z,16.20
2022-10-25T16:48:51.007Z,16.45
2022-10-25T16:51:19.276Z,16.70
2022-10-25T16:53:46.545Z,17.01
2022-10-25T16:56:13.392Z,16.79
2022-10-25T16:58:40.712Z,16.50
2022-10-25T17:01:20.816Z,16.57
2022-10-25T17:03:48.553Z,16.49
2022-10-25T17:06:36.049Z,16.00
2022-10-25T17:09:01.814Z,16.09
2022-10-25T17:11:28.209Z,15.99
2022-10-25T17:13:54.606Z,16.33
2022-10-25T17:16:22.361Z,16.15
2022-10-25T17:18:48.833Z,16.16
2022-10-25T17:21:18.039Z,16.32
2022-10-25T17:23:44.492Z,16.08
2022-10-25T17:26:10.914Z,16.01
2022-10-25T17:28:41.529Z,16.00
2022-10-25T17:31:12.408Z,16.11
2022-10-25T17:33:40.511Z,15.85
2022-10-25T17:36:08.559Z,15.99
2022-10-25T17:38:34.990Z,16.06
2022-10-25T17:41:01.368Z,15.97
2022-10-25T17:43:27.919Z,15.89
2022-10-25T17:45:59.464Z,15.61
2022-10-25T17:48:25.872Z,15.36
2022-10-25T17:50:53.636Z,15.63
2022-10-25T17:53:20.041Z,15.68
2022-10-25T17:55:46.434Z,15.74
2022-10-25T17:58:12.826Z,15.48
2022-10-25T18:00:39.453Z,15.61
2022-10-25T18:03:05.862Z,15.42
2022-10-25T18:05:32.258Z,15.37
2022-10-25T18:08:00.020Z,15.54
2022-10-25T18:10:26.523Z,15.45
2022-10-25T18:12:52.936Z,15.27
2022-10-25T18:15:20.050Z,15.40
2022-10-25T18:17:46.984Z,15.46
2022-10-25T18:20:13.775Z,15.49
2022-10-25T18:22:40.249Z,15.44
2022-10-25T18:25:09.254Z,15.53
2022-10-25T18:27:35.787Z,15.43
2022-10-25T18:30:02.305Z,15.16
2022-10-25T18:32:33.620Z,15.46
2022-10-25T18:35:03.064Z,15.33
2022-10-25T18:37:29.481Z,15.28
2022-10-25T18:39:55.860Z,15.31
2022-10-25T18:42:23.629Z,15.30
2022-10-25T18:44:50.034Z,15.40
2022-10-25T18:47:16.407Z,15.20
2022-10-25T18:49:42.857Z,15.21
2022-10-25T18:52:09.246Z,15.27
2022-10-25T18:54:35.696Z,15.11
2022-10-25T18:57:02.375Z,15.18
2022-10-25T18:59:30.111Z,15.15
2022-10-25T19:01:56.675Z,15.15
2022-10-25T19:04:23.519Z,15.33
2022-10-25T19:06:49.930Z,15.24
2022-10-25T19:09:16.318Z,14.92
2022-10-25T19:11:42.948Z,14.95
2022-10-25T19:14:09.347Z,14.68
2022-10-25T19:16:37.107Z,14.95
2022-10-25T19:19:04.387Z,14.83
2022-10-25T19:21:30.780Z,14.94
2022-10-25T19:23:57.196Z,14.72
2022-10-25T19:26:23.708Z,14.76
2022-10-25T19:28:55.865Z,14.65
2022-10-25T19:31:22.375Z,14.86
2022-10-25T19:33:51.606Z,14.98
2022-10-25T19:36:19.209Z,14.53
2022-10-25T19:38:46.247Z,14.90
2022-10-25T19:41:15.531Z,14.74
2022-10-25T19:43:42.172Z,14.77
2022-10-25T19:46:09.190Z,14.83
2022-10-25T19:48:35.800Z,15.00
2022-10-25T19:51:08.780Z,14.71
2022-10-25T19:53:35.699Z,14.50
2022-10-25T19:56:04.677Z,14.48
2022-10-25T19:58:31.148Z,14.65
2022-10-25T20:01:03.047Z,14.70
2022-10-25T20:03:29.703Z,14.66
2022-10-25T20:05:57.790Z,14.68
2022-10-25T20:08:25.935Z,14.84
2022-10-25T20:10:52.381Z,14.50
2022-10-25T20:13:18.782Z,14.64
2022-10-25T20:15:48.786Z,14.50
2022-10-25T20:18:15.191Z,14.65
2022-10-25T20:20:41.603Z,14.55
2022-10-25T20:23:08.034Z,14.43
2022-10-25T20:25:35.817Z,14.63
2022-10-25T20:28:02.210Z,14.48
2022-10-25T20:30:28.678Z,14.69
2022-10-25T20:32:55.071Z,14.68
2022-10-25T20:35:24.747Z,14.36
2022-10-25T20:37:53.603Z,14.15
2022-10-25T20:40:20.044Z,14.46
2022-10-25T20:42:47.814Z,14.60
2022-10-25T20:45:14.334Z,14.10
2022-10-25T20:47:40.988Z,14.25
2022-10-25T20:50:07.915Z,13.96
2022-10-25T20:52:34.696Z,14.01
2022-10-25T20:55:01.267Z,14.36
2022-10-25T20:57:27.774Z,14.15
2022-10-25T20:59:55.515Z,14.27
2022-10-25T21:02:21.991Z,14.39
2022-10-25T21:04:55.576Z,14.32
2022-10-25T21:07:22.098Z,14.10
2022-10-25T21:09:49.548Z,13.98
2022-10-25T21:12:16.433Z,13.95
2022-10-25T21:14:42.879Z,13.70
2022-10-25T21:17:10.605Z,14.07
2022-10-25T21:19:36.999Z,14.02
2022-10-25T21:22:03.927Z,14.07
2022-10-25T21:24:30.365Z,13.96
2022-10-25T21:26:56.776Z,14.17
2022-10-25T21:29:23.279Z,14.17
2022-10-25T21:31:49.706Z,14.10
2022-10-25T21:36:48.965Z,14.02
2022-10-25T21:39:15.357Z,14.00
2022-10-25T21:41:41.792Z,14.22
2022-10-25T21:46:39.668Z,13.99
2022-10-25T21:49:06.068Z,13.60
2022-10-25T21:51:33.853Z,13.93
2022-10-25T21:54:00.507Z,13.77
2022-10-25T21:56:26.961Z,13.72
2022-10-25T21:58:53.367Z,13.95
2022-10-25T22:01:21.123Z,13.78
2022-10-25T22:03:47.730Z,14.03
2022-10-25T22:06:16.322Z,13.98
2022-10-25T22:08:44.867Z,13.95
2022-10-25T22:11:14.352Z,14.00
2022-10-25T22:13:41.466Z,13.99
2022-10-25T22:16:10.639Z,13.79
2022-10-25T22:18:37.194Z,13.88
2022-10-25T22:21:06.222Z,13.63
2022-10-25T22:23:33.676Z,14.05
2022-10-25T22:26:02.461Z,13.87
2022-10-25T22:28:29.512Z,13.88
2022-10-25T22:30:59.198Z,13.95
2022-10-25T22:33:25.697Z,14.07
2022-10-25T22:35:52.164Z,13.85
2022-10-25T22:38:18.916Z,13.70
2022-10-25T22:40:55.822Z,13.28
2022-10-25T22:43:23.667Z,13.43
2022-10-25T22:45:50.076Z,13.42
2022-10-25T22:48:16.530Z,13.43
2022-10-25T22:50:47.475Z,13.53
2022-10-25T22:53:13.921Z,13.40
2022-10-25T22:55:40.388Z,13.59
2022-10-25T22:58:06.788Z,13.68
2022-10-25T23:00:34.555Z,13.47
2022-10-25T23:03:01.027Z,13.58
2022-10-25T23:05:27.489Z,13.62
2022-10-25T23:07:53.873Z,13.33
2022-10-25T23:10:20.285Z,13.54
2022-10-25T23:12:47.329Z,13.61
2022-10-25T23:15:14.478Z,13.70
2022-10-25T23:17:42.403Z,13.86
2022-10-25T23:20:10.151Z,13.85
2022-10-25T23:22:36.534Z,13.57
2022-10-25T23:25:03.202Z,13.55
2022-10-25T23:27:29.635Z,13.50
2022-10-25T23:29:56.050Z,13.35
2022-10-25T23:32:23.013Z,13.43
2022-10-25T23:34:52.571Z,13.54
2022-10-25T23:37:21.371Z,13.44
2022-10-25T23:39:47.853Z,13.47
2022-10-25T23:42:14.232Z,13.19
2022-10-25T23:44:40.977Z,13.41
2022-10-25T23:47:07.445Z,13.41
2022-10-25T23:49:33.844Z,13.28
2022-10-25T23:52:01.570Z,13.53
2022-10-25T23:54:28.017Z,13.21
2022-10-25T23:56:54.408Z,13.54
2022-10-25T23:59:20.858Z,13.40
